sensor_id;sensor_type;location;lat;lon;timestamp;P1;durP1;ratioP1;P2;durP2;ratioP2
43297;SDS011;28892;55.640;37.532;2022-12-10T00:01:46;23.23;;;9.43;;
43297;SDS011;28892;55.640;37.532;2022-12-10T00:04:13;23.10;;;9.20;;
43297;SDS011;28892;55.640;37.532;2022-12-10T00:06:39;22.73;;;9.50;;
43297;SDS011;28892;55.640;37.532;2022-12-10T00:09:06;32.50;;;8.97;;
43297;SDS011;28892;55.640;37.532;2022-12-10T00:11:34;35.40;;;10.00;;
43297;SDS011;28892;55.640;37.532;2022-12-10T00:14:00;24.50;;;9.83;;
43297;SDS011;28892;55.640;37.532;2022-12-10T00:16:26;28.33;;;10.43;;
43297;SDS011;28892;55.640;37.532;2022-12-10T00:18:53;46.40;;;10.30;;
43297;SDS011;28892;55.640;37.532;2022-12-10T00:21:29;41.90;;;10.30;;
43297;SDS011;28892;55.640;37.532;2022-12-10T00:24:00;27.20;;;10.53;;
43297;SDS011;28892;55.640;37.532;2022-12-10T00:26:30;29.90;;;10.60;;
43297;SDS011;28892;55.640;37.532;2022-12-10T00:28:57;42.03;;;10.93;;
43297;SDS011;28892;55.640;37.532;2022-12-10T00:31:28;22.80;;;10.13;;
43297;SDS011;28892;55.640;37.532;2022-12-10T00:33:56;29.43;;;9.63;;
43297;SDS011;28892;55.640;37.532;2022-12-10T00:36:26;31.30;;;9.50;;
43297;SDS011;28892;55.640;37.532;2022-12-10T00:38:54;23.83;;;10.67;;
43297;SDS011;28892;55.640;37.532;2022-12-10T00:41:20;25.40;;;10.37;;
43297;SDS011;28892;55.640;37.532;2022-12-10T00:43:46;25.67;;;10.97;;
43297;SDS011;28892;55.640;37.532;2022-12-10T00:46:12;36.63;;;11.20;;
43297;SDS011;28892;55.640;37.532;2022-12-10T00:48:39;24.03;;;11.03;;
43297;SDS011;28892;55.640;37.532;2022-12-10T00:51:07;29.27;;;11.97;;
43297;SDS011;28892;55.640;37.532;2022-12-10T00:53:36;27.80;;;12.10;;
43297;SDS011;28892;55.640;37.532;2022-12-10T00:56:05;25.23;;;12.50;;
43297;SDS011;28892;55.640;37.532;2022-12-10T01:02:54;20.97;;;10.00;;
43297;SDS011;28892;55.640;37.532;2022-12-10T01:05:20;23.77;;;11.20;;
43297;SDS011;28892;55.640;37.532;2022-12-10T01:07:45;23.70;;;11.40;;
43297;SDS011;28892;55.640;37.532;2022-12-10T01:10:11;29.40;;;10.90;;
43297;SDS011;28892;55.640;37.532;2022-12-10T01:12:38;26.43;;;11.00;;
43297;SDS011;28892;55.640;37.532;2022-12-10T01:15:03;30.37;;;10.87;;
43297;SDS011;28892;55.640;37.532;2022-12-10T01:17:29;28.57;;;11.13;;
43297;SDS011;28892;55.640;37.532;2022-12-10T01:19:55;30.07;;;11.83;;
43297;SDS011;28892;55.640;37.532;2022-12-10T01:22:21;29.37;;;11.97;;
43297;SDS011;28892;55.640;37.532;2022-12-10T01:24:46;27.47;;;12.87;;
43297;SDS011;28892;55.640;37.532;2022-12-10T01:27:12;24.97;;;12.37;;
43297;SDS011;28892;55.640;37.532;2022-12-10T01:29:37;30.93;;;13.50;;
43297;SDS011;28892;55.640;37.532;2022-12-10T01:32:03;28.47;;;12.03;;
43297;SDS011;28892;55.640;37.532;2022-12-10T01:34:29;37.43;;;14.10;;
43297;SDS011;28892;55.640;37.532;2022-12-10T01:36:55;36.73;;;15.57;;
43297;SDS011;28892;55.640;37.532;2022-12-10T01:39:22;40.80;;;14.70;;
43297;SDS011;28892;55.640;37.532;2022-12-10T01:41:56;40.20;;;15.33;;
43297;SDS011;28892;55.640;37.532;2022-12-10T01:46:50;37.43;;;14.73;;
43297;SDS011;28892;55.640;37.532;2022-12-10T01:49:19;52.40;;;18.57;;
43297;SDS011;28892;55.640;37.532;2022-12-10T01:51:48;45.93;;;17.80;;
43297;SDS011;28892;55.640;37.532;2022-12-10T01:54:38;46.40;;;16.83;;
43297;SDS011;28892;55.640;37.532;2022-12-10T01:59:45;47.13;;;17.63;;
43297;SDS011;28892;55.640;37.532;2022-12-10T02:05:01;43.50;;;16.13;;
43297;SDS011;28892;55.640;37.532;2022-12-10T02:07:49;45.05;;;16.55;;
43297;SDS011;28892;55.640;37.532;2022-12-10T02:13:43;50.17;;;18.23;;
43297;SDS011;28892;55.640;37.532;2022-12-10T02:16:20;45.47;;;18.47;;
43297;SDS011;28892;55.640;37.532;2022-12-10T02:18:56;51.47;;;18.27;;
43297;SDS011;28892;55.640;37.532;2022-12-10T02:21:30;45.80;;;18.33;;
43297;SDS011;28892;55.640;37.532;2022-12-10T02:24:05;51.20;;;19.50;;
43297;SDS011;28892;55.640;37.532;2022-12-10T02:29:16;49.40;;;18.10;;
43297;SDS011;28892;55.640;37.532;2022-12-10T02:31:48;41.10;;;17.00;;
43297;SDS011;28892;55.640;37.532;2022-12-10T02:34:18;43.03;;;17.13;;
43297;SDS011;28892;55.640;37.532;2022-12-10T02:36:46;48.13;;;17.90;;
43297;SDS011;28892;55.640;37.532;2022-12-10T02:39:15;49.87;;;17.43;;
43297;SDS011;28892;55.640;37.532;2022-12-10T02:41:52;46.80;;;17.47;;
43297;SDS011;28892;55.640;37.532;2022-12-10T02:44:19;47.70;;;18.37;;
43297;SDS011;28892;55.640;37.532;2022-12-10T02:46:50;43.53;;;17.60;;
43297;SDS011;28892;55.640;37.532;2022-12-10T02:49:19;47.30;;;18.43;;
43297;SDS011;28892;55.640;37.532;2022-12-10T02:51:47;43.77;;;17.70;;
43297;SDS011;28892;55.640;37.532;2022-12-10T02:54:50;47.07;;;18.73;;
43297;SDS011;28892;55.640;37.532;2022-12-10T03:00:17;40.27;;;16.43;;
43297;SDS011;28892;55.640;37.532;2022-12-10T03:08:15;40.50;;;16.97;;
43297;SDS011;28892;55.640;37.532;2022-12-10T03:14:23;38.17;;;17.20;;
43297;SDS011;28892;55.640;37.532;2022-12-10T03:16:23;40.60;;;17.87;;
43297;SDS011;28892;55.640;37.532;2022-12-10T03:18:52;41.20;;;17.67;;
43297;SDS011;28892;55.640;37.532;2022-12-10T03:21:22;40.30;;;17.53;;
43297;SDS011;28892;55.640;37.532;2022-12-10T03:23:50;42.03;;;17.10;;
43297;SDS011;28892;55.640;37.532;2022-12-10T03:26:19;44.90;;;17.33;;
43297;SDS011;28892;55.640;37.532;2022-12-10T03:28:50;40.83;;;18.83;;
43297;SDS011;28892;55.640;37.532;2022-12-10T03:31:19;41.27;;;17.27;;
43297;SDS011;28892;55.640;37.532;2022-12-10T03:33:46;42.70;;;18.80;;
43297;SDS011;28892;55.640;37.532;2022-12-10T03:36:13;46.50;;;18.73;;
43297;SDS011;28892;55.640;37.532;2022-12-10T03:38:41;39.83;;;17.73;;
43297;SDS011;28892;55.640;37.532;2022-12-10T03:41:08;42.87;;;18.43;;
43297;SDS011;28892;55.640;37.532;2022-12-10T03:43:34;40.87;;;17.93;;
43297;SDS011;28892;55.640;37.532;2022-12-10T03:46:00;38.47;;;18.30;;
43297;SDS011;28892;55.640;37.532;2022-12-10T03:48:26;37.13;;;17.63;;
43297;SDS011;28892;55.640;37.532;2022-12-10T03:50:51;42.67;;;17.77;;
43297;SDS011;28892;55.640;37.532;2022-12-10T03:53:17;43.93;;;19.57;;
43297;SDS011;28892;55.640;37.532;2022-12-10T03:55:43;43.77;;;20.20;;
43297;SDS011;28892;55.640;37.532;2022-12-10T03:58:08;41.80;;;19.03;;
43297;SDS011;28892;55.640;37.532;2022-12-10T04:00:34;47.93;;;20.63;;
43297;SDS011;28892;55.640;37.532;2022-12-10T04:03:00;49.63;;;19.20;;
43297;SDS011;28892;55.640;37.532;2022-12-10T04:05:25;38.93;;;18.60;;
43297;SDS011;28892;55.640;37.532;2022-12-10T04:07:51;52.57;;;21.90;;
43297;SDS011;28892;55.640;37.532;2022-12-10T04:10:17;46.23;;;19.10;;
43297;SDS011;28892;55.640;37.532;2022-12-10T04:12:42;41.63;;;19.10;;
43297;SDS011;28892;55.640;37.532;2022-12-10T04:15:28;49.83;;;20.40;;
43297;SDS011;28892;55.640;37.532;2022-12-10T04:18:12;46.80;;;20.33;;
43297;SDS011;28892;55.640;37.532;2022-12-10T04:20:38;50.57;;;21.90;;
43297;SDS011;28892;55.640;37.532;2022-12-10T04:23:22;47.93;;;19.70;;
43297;SDS011;28892;55.640;37.532;2022-12-10T04:26:06;53.50;;;21.77;;
43297;SDS011;28892;55.640;37.532;2022-12-10T04:28:51;54.07;;;21.30;;
43297;SDS011;28892;55.640;37.532;2022-12-10T04:31:16;51.43;;;22.03;;
43297;SDS011;28892;55.640;37.532;2022-12-10T04:33:42;51.77;;;21.63;;
43297;SDS011;28892;55.640;37.532;2022-12-10T04:36:07;54.03;;;21.73;;
43297;SDS011;28892;55.640;37.532;2022-12-10T04:38:33;48.53;;;21.10;;
43297;SDS011;28892;55.640;37.532;2022-12-10T04:40:59;51.77;;;21.50;;
43297;SDS011;28892;55.640;37.532;2022-12-10T04:43:24;59.07;;;21.63;;
43297;SDS011;28892;55.640;37.532;2022-12-10T04:45:50;46.03;;;20.57;;
43297;SDS011;28892;55.640;37.532;2022-12-10T04:48:16;53.03;;;21.07;;
43297;SDS011;28892;55.640;37.532;2022-12-10T04:50:41;50.53;;;21.47;;
43297;SDS011;28892;55.640;37.532;2022-12-10T04:53:07;50.90;;;21.80;;
43297;SDS011;28892;55.640;37.532;2022-12-10T04:55:32;49.80;;;21.77;;
43297;SDS011;28892;55.640;37.532;2022-12-10T04:57:58;41.17;;;16.60;;
43297;SDS011;28892;55.640;37.532;2022-12-10T05:00:23;48.03;;;21.97;;
43297;SDS011;28892;55.640;37.532;2022-12-10T05:02:50;42.07;;;21.23;;
43297;SDS011;28892;55.640;37.532;2022-12-10T05:05:15;38.00;;;17.13;;
43297;SDS011;28892;55.640;37.532;2022-12-10T05:07:41;40.23;;;18.97;;
43297;SDS011;28892;55.640;37.532;2022-12-10T05:10:07;38.80;;;18.60;;
43297;SDS011;28892;55.640;37.532;2022-12-10T05:12:33;35.70;;;17.60;;
43297;SDS011;28892;55.640;37.532;2022-12-10T05:14:59;46.07;;;17.93;;
43297;SDS011;28892;55.640;37.532;2022-12-10T05:17:25;41.43;;;19.60;;
43297;SDS011;28892;55.640;37.532;2022-12-10T05:19:50;43.83;;;19.10;;
43297;SDS011;28892;55.640;37.532;2022-12-10T05:22:16;36.87;;;18.20;;
43297;SDS011;28892;55.640;37.532;2022-12-10T05:25:00;36.37;;;18.60;;
43297;SDS011;28892;55.640;37.532;2022-12-10T05:27:30;37.13;;;18.30;;
43297;SDS011;28892;55.640;37.532;2022-12-10T05:29:56;36.17;;;18.10;;
43297;SDS011;28892;55.640;37.532;2022-12-10T05:32:22;38.00;;;19.67;;
43297;SDS011;28892;55.640;37.532;2022-12-10T05:34:47;41.13;;;19.20;;
43297;SDS011;28892;55.640;37.532;2022-12-10T05:37:13;35.00;;;18.93;;
43297;SDS011;28892;55.640;37.532;2022-12-10T05:39:38;42.53;;;18.70;;
43297;SDS011;28892;55.640;37.532;2022-12-10T05:42:04;35.00;;;17.83;;
43297;SDS011;28892;55.640;37.532;2022-12-10T05:44:30;38.57;;;19.00;;
43297;SDS011;28892;55.640;37.532;2022-12-10T05:46:55;35.30;;;18.53;;
43297;SDS011;28892;55.640;37.532;2022-12-10T05:49:21;34.83;;;16.43;;
43297;SDS011;28892;55.640;37.532;2022-12-10T05:51:46;33.80;;;18.40;;
43297;SDS011;28892;55.640;37.532;2022-12-10T05:54:12;32.17;;;16.90;;
43297;SDS011;28892;55.640;37.532;2022-12-10T05:56:37;37.30;;;16.93;;
43297;SDS011;28892;55.640;37.532;2022-12-10T05:59:03;25.80;;;12.70;;
43297;SDS011;28892;55.640;37.532;2022-12-10T06:01:31;32.60;;;18.03;;
43297;SDS011;28892;55.640;37.532;2022-12-10T06:03:59;36.47;;;18.23;;
43297;SDS011;28892;55.640;37.532;2022-12-10T06:06:31;34.53;;;16.50;;
43297;SDS011;28892;55.640;37.532;2022-12-10T06:08:59;38.30;;;19.07;;
43297;SDS011;28892;55.640;37.532;2022-12-10T06:11:25;37.10;;;17.87;;
43297;SDS011;28892;55.640;37.532;2022-12-10T06:13:52;36.63;;;18.40;;
43297;SDS011;28892;55.640;37.532;2022-12-10T06:16:18;36.30;;;19.07;;
43297;SDS011;28892;55.640;37.532;2022-12-10T06:18:44;38.87;;;18.27;;
43297;SDS011;28892;55.640;37.532;2022-12-10T06:21:11;39.40;;;20.37;;
43297;SDS011;28892;55.640;37.532;2022-12-10T06:23:39;41.20;;;19.37;;
43297;SDS011;28892;55.640;37.532;2022-12-10T06:26:07;34.37;;;17.50;;
43297;SDS011;28892;55.640;37.532;2022-12-10T06:28:32;37.77;;;19.90;;
43297;SDS011;28892;55.640;37.532;2022-12-10T06:30:59;37.93;;;17.70;;
43297;SDS011;28892;55.640;37.532;2022-12-10T06:33:24;35.97;;;18.63;;
43297;SDS011;28892;55.640;37.532;2022-12-10T06:35:50;38.87;;;19.77;;
43297;SDS011;28892;55.640;37.532;2022-12-10T06:38:16;39.90;;;20.40;;
43297;SDS011;28892;55.640;37.532;2022-12-10T06:40:42;48.97;;;20.90;;
43297;SDS011;28892;55.640;37.532;2022-12-10T06:43:08;42.17;;;19.00;;
43297;SDS011;28892;55.640;37.532;2022-12-10T06:45:33;42.00;;;20.07;;
43297;SDS011;28892;55.640;37.532;2022-12-10T06:48:03;43.57;;;21.37;;
43297;SDS011;28892;55.640;37.532;2022-12-10T06:50:29;49.17;;;21.60;;
43297;SDS011;28892;55.640;37.532;2022-12-10T06:52:55;47.73;;;21.83;;
43297;SDS011;28892;55.640;37.532;2022-12-10T06:55:21;52.20;;;22.87;;
43297;SDS011;28892;55.640;37.532;2022-12-10T06:57:50;54.43;;;23.83;;
43297;SDS011;28892;55.640;37.532;2022-12-10T07:00:17;55.07;;;23.20;;
43297;SDS011;28892;55.640;37.532;2022-12-10T07:02:43;56.63;;;24.67;;
43297;SDS011;28892;55.640;37.532;2022-12-10T07:05:08;58.30;;;24.43;;
43297;SDS011;28892;55.640;37.532;2022-12-10T07:07:35;55.80;;;23.80;;
43297;SDS011;28892;55.640;37.532;2022-12-10T07:10:01;66.63;;;25.30;;
43297;SDS011;28892;55.640;37.532;2022-12-10T07:12:28;61.70;;;23.10;;
43297;SDS011;28892;55.640;37.532;2022-12-10T07:14:54;58.73;;;24.60;;
43297;SDS011;28892;55.640;37.532;2022-12-10T07:17:19;64.23;;;26.10;;
43297;SDS011;28892;55.640;37.532;2022-12-10T07:19:45;73.90;;;25.67;;
43297;SDS011;28892;55.640;37.532;2022-12-10T07:22:11;58.03;;;25.20;;
43297;SDS011;28892;55.640;37.532;2022-12-10T07:24:37;62.93;;;24.03;;
43297;SDS011;28892;55.640;37.532;2022-12-10T07:27:06;66.17;;;25.20;;
43297;SDS011;28892;55.640;37.532;2022-12-10T07:29:32;62.30;;;23.97;;
43297;SDS011;28892;55.640;37.532;2022-12-10T07:31:58;67.73;;;26.67;;
43297;SDS011;28892;55.640;37.532;2022-12-10T07:34:23;71.80;;;26.67;;
43297;SDS011;28892;55.640;37.532;2022-12-10T07:36:49;60.80;;;24.43;;
43297;SDS011;28892;55.640;37.532;2022-12-10T07:39:15;61.23;;;25.53;;
43297;SDS011;28892;55.640;37.532;2022-12-10T07:41:52;64.07;;;26.27;;
43297;SDS011;28892;55.640;37.532;2022-12-10T07:44:22;70.60;;;25.93;;
43297;SDS011;28892;55.640;37.532;2022-12-10T07:46:50;61.73;;;27.00;;
43297;SDS011;28892;55.640;37.532;2022-12-10T07:49:17;73.03;;;27.37;;
43297;SDS011;28892;55.640;37.532;2022-12-10T07:51:47;72.17;;;25.20;;
43297;SDS011;28892;55.640;37.532;2022-12-10T07:54:14;67.53;;;26.07;;
43297;SDS011;28892;55.640;37.532;2022-12-10T07:56:40;72.60;;;24.80;;
43297;SDS011;28892;55.640;37.532;2022-12-10T07:59:06;81.63;;;27.57;;
43297;SDS011;28892;55.640;37.532;2022-12-10T08:01:31;78.40;;;27.40;;
43297;SDS011;28892;55.640;37.532;2022-12-10T08:03:57;72.07;;;26.73;;
43297;SDS011;28892;55.640;37.532;2022-12-10T08:06:23;73.63;;;28.33;;
43297;SDS011;28892;55.640;37.532;2022-12-10T08:08:51;64.60;;;25.43;;
43297;SDS011;28892;55.640;37.532;2022-12-10T08:11:18;58.67;;;23.27;;
43297;SDS011;28892;55.640;37.532;2022-12-10T08:13:45;75.23;;;25.87;;
43297;SDS011;28892;55.640;37.532;2022-12-10T08:16:13;73.33;;;28.77;;
43297;SDS011;28892;55.640;37.532;2022-12-10T08:18:41;61.47;;;26.20;;
43297;SDS011;28892;55.640;37.532;2022-12-10T08:21:08;65.80;;;27.37;;
43297;SDS011;28892;55.640;37.532;2022-12-10T08:23:38;73.70;;;27.27;;
43297;SDS011;28892;55.640;37.532;2022-12-10T08:26:05;66.97;;;24.43;;
43297;SDS011;28892;55.640;37.532;2022-12-10T08:28:33;69.63;;;27.37;;
43297;SDS011;28892;55.640;37.532;2022-12-10T08:30:59;69.23;;;27.37;;
43297;SDS011;28892;55.640;37.532;2022-12-10T08:33:25;63.07;;;25.03;;
43297;SDS011;28892;55.640;37.532;2022-12-10T08:35:51;71.73;;;28.17;;
43297;SDS011;28892;55.640;37.532;2022-12-10T08:38:17;65.00;;;27.40;;
43297;SDS011;28892;55.640;37.532;2022-12-10T08:40:43;66.63;;;27.00;;
43297;SDS011;28892;55.640;37.532;2022-12-10T08:43:09;61.30;;;23.37;;
43297;SDS011;28892;55.640;37.532;2022-12-10T08:45:35;68.50;;;26.00;;
43297;SDS011;28892;55.640;37.532;2022-12-10T08:48:01;59.60;;;26.13;;
43297;SDS011;28892;55.640;37.532;2022-12-10T08:50:27;71.07;;;27.50;;
43297;SDS011;28892;55.640;37.532;2022-12-10T08:52:54;62.60;;;25.80;;
43297;SDS011;28892;55.640;37.532;2022-12-10T08:55:19;62.53;;;25.97;;
43297;SDS011;28892;55.640;37.532;2022-12-10T08:57:45;66.20;;;25.90;;
43297;SDS011;28892;55.640;37.532;2022-12-10T09:00:11;70.53;;;26.70;;
43297;SDS011;28892;55.640;37.532;2022-12-10T09:02:38;56.20;;;24.53;;
43297;SDS011;28892;55.640;37.532;2022-12-10T09:05:07;67.03;;;24.30;;
43297;SDS011;28892;55.640;37.532;2022-12-10T09:08:10;68.70;;;26.77;;
43297;SDS011;28892;55.640;37.532;2022-12-10T09:10:36;55.83;;;21.80;;
43297;SDS011;28892;55.640;37.532;2022-12-10T09:13:02;64.57;;;26.43;;
43297;SDS011;28892;55.640;37.532;2022-12-10T09:15:28;64.93;;;26.57;;
43297;SDS011;28892;55.640;37.532;2022-12-10T09:17:54;62.40;;;24.40;;
43297;SDS011;28892;55.640;37.532;2022-12-10T09:20:20;68.30;;;24.13;;
43297;SDS011;28892;55.640;37.532;2022-12-10T09:22:45;68.07;;;24.63;;
43297;SDS011;28892;55.640;37.532;2022-12-10T09:25:11;71.57;;;27.83;;
43297;SDS011;28892;55.640;37.532;2022-12-10T09:27:41;71.33;;;27.67;;
43297;SDS011;28892;55.640;37.532;2022-12-10T09:30:07;83.43;;;28.83;;
43297;SDS011;28892;55.640;37.532;2022-12-10T09:32:33;75.37;;;27.57;;
43297;SDS011;28892;55.640;37.532;2022-12-10T09:34:59;75.53;;;27.67;;
43297;SDS011;28892;55.640;37.532;2022-12-10T09:37:28;76.70;;;28.87;;
43297;SDS011;28892;55.640;37.532;2022-12-10T09:39:53;79.10;;;29.07;;
43297;SDS011;28892;55.640;37.532;2022-12-10T09:42:26;72.33;;;28.60;;
43297;SDS011;28892;55.640;37.532;2022-12-10T09:45:02;89.47;;;28.03;;
43297;SDS011;28892;55.640;37.532;2022-12-10T09:47:36;84.00;;;26.10;;
43297;SDS011;28892;55.640;37.532;2022-12-10T09:50:11;86.83;;;25.27;;
43297;SDS011;28892;55.640;37.532;2022-12-10T09:52:46;79.87;;;27.23;;
43297;SDS011;28892;55.640;37.532;2022-12-10T09:55:18;101.63;;;28.33;;
43297;SDS011;28892;55.640;37.532;2022-12-10T09:57:48;79.17;;;27.70;;
43297;SDS011;28892;55.640;37.532;2022-12-10T10:02:48;91.97;;;24.03;;
43297;SDS011;28892;55.640;37.532;2022-12-10T10:05:37;71.90;;;24.47;;
43297;SDS011;28892;55.640;37.532;2022-12-10T10:08:04;96.47;;;28.47;;
43297;SDS011;28892;55.640;37.532;2022-12-10T10:10:33;87.80;;;25.50;;
43297;SDS011;28892;55.640;37.532;2022-12-10T10:15:32;78.63;;;24.57;;
43297;SDS011;28892;55.640;37.532;2022-12-10T10:18:33;86.13;;;24.43;;
43297;SDS011;28892;55.640;37.532;2022-12-10T10:21:12;84.50;;;26.20;;
43297;SDS011;28892;55.640;37.532;2022-12-10T10:23:44;98.20;;;29.50;;
43297;SDS011;28892;55.640;37.532;2022-12-10T10:26:11;149.83;;;28.10;;
43297;SDS011;28892;55.640;37.532;2022-12-10T10:28:36;53.57;;;19.10;;
43297;SDS011;28892;55.640;37.532;2022-12-10T10:31:12;89.73;;;28.80;;
43297;SDS011;28892;55.640;37.532;2022-12-10T10:33:48;71.93;;;26.30;;
43297;SDS011;28892;55.640;37.532;2022-12-10T10:36:15;76.57;;;26.37;;
43297;SDS011;28892;55.640;37.532;2022-12-10T10:38:46;87.17;;;29.63;;
43297;SDS011;28892;55.640;37.532;2022-12-10T10:41:13;79.93;;;27.03;;
43297;SDS011;28892;55.640;37.532;2022-12-10T10:43:40;73.67;;;25.53;;
43297;SDS011;28892;55.640;37.532;2022-12-10T10:48:38;77.17;;;27.53;;
43297;SDS011;28892;55.640;37.532;2022-12-10T10:51:13;76.83;;;25.13;;
43297;SDS011;28892;55.640;37.532;2022-12-10T10:59:05;80.07;;;25.37;;
43297;SDS011;28892;55.640;37.532;2022-12-10T11:04:09;130.43;;;27.00;;
43297;SDS011;28892;55.640;37.532;2022-12-10T11:06:35;195.60;;;25.40;;
43297;SDS011;28892;55.640;37.532;2022-12-10T11:09:00;140.90;;;27.93;;
43297;SDS011;28892;55.640;37.532;2022-12-10T11:14:24;145.27;;;24.33;;
43297;SDS011;28892;55.640;37.532;2022-12-10T11:16:49;148.97;;;26.27;;
43297;SDS011;28892;55.640;37.532;2022-12-10T11:19:20;167.93;;;25.80;;
43297;SDS011;28892;55.640;37.532;2022-12-10T11:21:48;98.55;;;26.50;;
43297;SDS011;28892;55.640;37.532;2022-12-10T11:24:16;104.27;;;24.27;;
43297;SDS011;28892;55.640;37.532;2022-12-10T11:35:09;78.47;;;23.97;;
43297;SDS011;28892;55.640;37.532;2022-12-10T11:40:19;86.90;;;22.30;;
43297;SDS011;28892;55.640;37.532;2022-12-10T11:56:49;41.30;;;17.50;;
43297;SDS011;28892;55.640;37.532;2022-12-10T11:59:31;47.77;;;20.30;;
43297;SDS011;28892;55.640;37.532;2022-12-10T12:04:52;41.60;;;18.13;;
43297;SDS011;28892;55.640;37.532;2022-12-10T12:07:44;42.90;;;19.77;;
43297;SDS011;28892;55.640;37.532;2022-12-10T12:13:20;38.40;;;18.20;;
43297;SDS011;28892;55.640;37.532;2022-12-10T12:15:53;38.58;;;18.23;;
43297;SDS011;28892;55.640;37.532;2022-12-10T12:19:14;40.30;;;19.70;;
43297;SDS011;28892;55.640;37.532;2022-12-10T12:21:37;33.10;;;14.70;;
43297;SDS011;28892;55.640;37.532;2022-12-10T12:24:05;33.23;;;18.13;;
43297;SDS011;28892;55.640;37.532;2022-12-10T12:29:57;34.20;;;17.87;;
43297;SDS011;28892;55.640;37.532;2022-12-10T12:32:36;35.77;;;15.43;;
43297;SDS011;28892;55.640;37.532;2022-12-10T12:35:12;26.23;;;15.50;;
43297;SDS011;28892;55.640;37.532;2022-12-10T12:38:06;38.00;;;17.67;;
43297;SDS011;28892;55.640;37.532;2022-12-10T12:40:41;31.80;;;17.00;;
43297;SDS011;28892;55.640;37.532;2022-12-10T12:43:25;27.10;;;15.63;;
43297;SDS011;28892;55.640;37.532;2022-12-10T12:46:24;29.03;;;15.70;;
43297;SDS011;28892;55.640;37.532;2022-12-10T12:48:56;31.60;;;16.67;;
43297;SDS011;28892;55.640;37.532;2022-12-10T12:51:29;29.90;;;15.40;;
43297;SDS011;28892;55.640;37.532;2022-12-10T12:54:01;25.37;;;13.67;;
43297;SDS011;28892;55.640;37.532;2022-12-10T13:03:17;27.23;;;14.80;;
43297;SDS011;28892;55.640;37.532;2022-12-10T13:05:46;25.90;;;13.60;;
43297;SDS011;28892;55.640;37.532;2022-12-10T13:08:21;30.13;;;17.00;;
43297;SDS011;28892;55.640;37.532;2022-12-10T13:13:23;21.37;;;12.40;;
43297;SDS011;28892;55.640;37.532;2022-12-10T13:15:50;26.80;;;15.67;;
43297;SDS011;28892;55.640;37.532;2022-12-10T13:23:48;27.63;;;15.27;;
43297;SDS011;28892;55.640;37.532;2022-12-10T13:26:29;25.23;;;14.85;;
43297;SDS011;28892;55.640;37.532;2022-12-10T13:28:57;24.43;;;14.00;;
43297;SDS011;28892;55.640;37.532;2022-12-10T13:31:56;21.20;;;12.82;;
43297;SDS011;28892;55.640;37.532;2022-12-10T13:34:46;22.77;;;14.03;;
43297;SDS011;28892;55.640;37.532;2022-12-10T13:39:47;24.97;;;14.33;;
43297;SDS011;28892;55.640;37.532;2022-12-10T13:42:25;24.70;;;14.90;;
43297;SDS011;28892;55.640;37.532;2022-12-10T13:47:53;23.57;;;13.63;;
43297;SDS011;28892;55.640;37.532;2022-12-10T14:07:23;20.50;;;13.00;;
43297;SDS011;28892;55.640;37.532;2022-12-10T14:09:53;16.37;;;9.73;;
43297;SDS011;28892;55.640;37.532;2022-12-10T14:12:31;22.00;;;12.60;;
43297;SDS011;28892;55.640;37.532;2022-12-10T14:15:04;27.23;;;13.77;;
43297;SDS011;28892;55.640;37.532;2022-12-10T14:17:40;19.67;;;10.33;;
43297;SDS011;28892;55.640;37.532;2022-12-10T14:20:14;20.17;;;11.03;;
43297;SDS011;28892;55.640;37.532;2022-12-10T14:22:52;22.83;;;14.33;;
43297;SDS011;28892;55.640;37.532;2022-12-10T14:25:44;21.67;;;12.00;;
43297;SDS011;28892;55.640;37.532;2022-12-10T14:28:12;22.73;;;13.03;;
43297;SDS011;28892;55.640;37.532;2022-12-10T14:30:44;21.50;;;12.47;;
43297;SDS011;28892;55.640;37.532;2022-12-10T14:33:16;21.77;;;13.73;;
43297;SDS011;28892;55.640;37.532;2022-12-10T14:35:49;21.70;;;12.83;;
43297;SDS011;28892;55.640;37.532;2022-12-10T14:38:28;17.30;;;11.20;;
43297;SDS011;28892;55.640;37.532;2022-12-10T14:40:59;22.67;;;12.50;;
43297;SDS011;28892;55.640;37.532;2022-12-10T14:43:31;18.33;;;12.20;;
43297;SDS011;28892;55.640;37.532;2022-12-10T14:46:03;14.80;;;8.40;;
43297;SDS011;28892;55.640;37.532;2022-12-10T14:48:35;20.40;;;13.50;;
43297;SDS011;28892;55.640;37.532;2022-12-10T14:51:10;20.10;;;12.17;;
43297;SDS011;28892;55.640;37.532;2022-12-10T14:53:39;17.47;;;9.33;;
43297;SDS011;28892;55.640;37.532;2022-12-10T14:56:05;13.93;;;9.93;;
43297;SDS011;28892;55.640;37.532;2022-12-10T15:03:52;21.73;;;12.70;;
43297;SDS011;28892;55.640;37.532;2022-12-10T15:06:19;17.20;;;8.90;;
43297;SDS011;28892;55.640;37.532;2022-12-10T15:08:45;19.77;;;12.77;;
43297;SDS011;28892;55.640;37.532;2022-12-10T15:11:16;20.57;;;13.37;;
43297;SDS011;28892;55.640;37.532;2022-12-10T15:13:50;21.47;;;13.23;;
43297;SDS011;28892;55.640;37.532;2022-12-10T15:16:29;18.70;;;12.40;;
43297;SDS011;28892;55.640;37.532;2022-12-10T15:19:15;18.20;;;11.73;;
43297;SDS011;28892;55.640;37.532;2022-12-10T15:21:46;18.20;;;13.47;;
43297;SDS011;28892;55.640;37.532;2022-12-10T15:24:26;20.63;;;13.70;;
43297;SDS011;28892;55.640;37.532;2022-12-10T15:27:02;19.13;;;12.73;;
43297;SDS011;28892;55.640;37.532;2022-12-10T15:29:42;14.57;;;9.87;;
43297;SDS011;28892;55.640;37.532;2022-12-10T15:32:12;16.20;;;11.03;;
43297;SDS011;28892;55.640;37.532;2022-12-10T15:34:44;17.43;;;12.63;;
43297;SDS011;28892;55.640;37.532;2022-12-10T15:37:20;19.57;;;13.93;;
43297;SDS011;28892;55.640;37.532;2022-12-10T15:39:50;17.77;;;12.93;;
43297;SDS011;28892;55.640;37.532;2022-12-10T15:42:30;20.13;;;14.20;;
43297;SDS011;28892;55.640;37.532;2022-12-10T15:44:58;18.93;;;12.83;;
43297;SDS011;28892;55.640;37.532;2022-12-10T15:47:29;19.30;;;12.50;;
43297;SDS011;28892;55.640;37.532;2022-12-10T15:49:55;16.07;;;11.53;;
43297;SDS011;28892;55.640;37.532;2022-12-10T15:52:23;16.87;;;12.87;;
43297;SDS011;28892;55.640;37.532;2022-12-10T15:54:52;19.20;;;13.40;;
43297;SDS011;28892;55.640;37.532;2022-12-10T15:59:59;19.57;;;14.30;;
43297;SDS011;28892;55.640;37.532;2022-12-10T16:05:14;21.37;;;14.17;;
43297;SDS011;28892;55.640;37.532;2022-12-10T16:07:50;12.77;;;9.77;;
43297;SDS011;28892;55.640;37.532;2022-12-10T16:10:18;15.57;;;11.20;;
43297;SDS011;28892;55.640;37.532;2022-12-10T16:12:46;19.63;;;13.80;;
43297;SDS011;28892;55.640;37.532;2022-12-10T16:15:19;15.67;;;12.43;;
43297;SDS011;28892;55.640;37.532;2022-12-10T16:17:48;20.37;;;14.90;;
43297;SDS011;28892;55.640;37.532;2022-12-10T16:20:24;19.93;;;14.50;;
43297;SDS011;28892;55.640;37.532;2022-12-10T16:23:18;13.93;;;10.00;;
43297;SDS011;28892;55.640;37.532;2022-12-10T16:25:44;18.13;;;13.80;;
43297;SDS011;28892;55.640;37.532;2022-12-10T16:28:15;16.40;;;12.73;;
43297;SDS011;28892;55.640;37.532;2022-12-10T16:33:18;15.57;;;11.73;;
43297;SDS011;28892;55.640;37.532;2022-12-10T16:35:46;15.47;;;11.17;;
43297;SDS011;28892;55.640;37.532;2022-12-10T16:38:12;16.00;;;12.20;;